sensor_id;sensor_type;location;lat;lon;timestamp;P1;durP1;ratioP1;P2;durP2;ratioP2
69956;SDS011;57283;54.816;9.482;2022-09-09T00:00:25;21.85;;;7.57;;
69956;SDS011;57283;54.816;9.482;2022-09-09T00:02:55;20.27;;;7.47;;
69956;SDS011;57283;54.816;9.482;2022-09-09T00:05:27;21.25;;;7.40;;
69956;SDS011;57283;54.816;9.482;2022-09-09T00:07:58;23.33;;;7.45;;
69956;SDS011;57283;54.816;9.482;2022-09-09T00:10:28;25.23;;;7.95;;
69956;SDS011;57283;54.816;9.482;2022-09-09T00:12:57;21.38;;;7.53;;
69956;SDS011;57283;54.816;9.482;2022-09-09T00:15:29;20.40;;;7.83;;
69956;SDS011;57283;54.816;9.482;2022-09-09T00:18:01;21.77;;;8.55;;
69956;SDS011;57283;54.816;9.482;2022-09-09T00:20:32;23.02;;;7.90;;
69956;SDS011;57283;54.816;9.482;2022-09-09T00:23:08;22.15;;;8.35;;
69956;SDS011;57283;54.816;9.482;2022-09-09T00:25:40;20.63;;;8.48;;
69956;SDS011;57283;54.816;9.482;2022-09-09T00:28:13;22.10;;;8.80;;
69956;SDS011;57283;54.816;9.482;2022-09-09T00:30:43;23.88;;;8.60;;
69956;SDS011;57283;54.816;9.482;2022-09-09T00:33:15;21.95;;;8.65;;
69956;SDS011;57283;54.816;9.482;2022-09-09T00:35:43;23.98;;;8.63;;
69956;SDS011;57283;54.816;9.482;2022-09-09T00:38:14;23.60;;;9.27;;
69956;SDS011;57283;54.816;9.482;2022-09-09T00:40:45;22.77;;;9.23;;
69956;SDS011;57283;54.816;9.482;2022-09-09T00:43:26;25.77;;;9.10;;
69956;SDS011;57283;54.816;9.482;2022-09-09T00:48:44;20.73;;;8.82;;
69956;SDS011;57283;54.816;9.482;2022-09-09T00:51:15;25.17;;;9.55;;
69956;SDS011;57283;54.816;9.482;2022-09-09T00:53:55;24.90;;;9.50;;
69956;SDS011;57283;54.816;9.482;2022-09-09T00:56:26;23.67;;;9.50;;
69956;SDS011;57283;54.816;9.482;2022-09-09T00:58:59;22.48;;;9.90;;
69956;SDS011;57283;54.816;9.482;2022-09-09T01:01:28;23.55;;;10.65;;
69956;SDS011;57283;54.816;9.482;2022-09-09T01:03:56;26.05;;;10.57;;
69956;SDS011;57283;54.816;9.482;2022-09-09T01:06:27;22.57;;;9.63;;
69956;SDS011;57283;54.816;9.482;2022-09-09T01:09:13;21.75;;;9.75;;
69956;SDS011;57283;54.816;9.482;2022-09-09T01:11:49;24.65;;;9.73;;
69956;SDS011;57283;54.816;9.482;2022-09-09T01:14:20;21.35;;;9.68;;
69956;SDS011;57283;54.816;9.482;2022-09-09T01:16:52;24.27;;;10.68;;
69956;SDS011;57283;54.816;9.482;2022-09-09T01:19:24;23.87;;;10.20;;
69956;SDS011;57283;54.816;9.482;2022-09-09T01:21:59;24.23;;;9.75;;
69956;SDS011;57283;54.816;9.482;2022-09-09T01:24:31;21.33;;;9.68;;
69956;SDS011;57283;54.816;9.482;2022-09-09T01:27:03;22.67;;;9.90;;
69956;SDS011;57283;54.816;9.482;2022-09-09T01:29:32;22.05;;;9.73;;
69956;SDS011;57283;54.816;9.482;2022-09-09T01:32:00;20.80;;;8.80;;
69956;SDS011;57283;54.816;9.482;2022-09-09T01:34:29;23.92;;;10.18;;
69956;SDS011;57283;54.816;9.482;2022-09-09T01:36:59;25.73;;;9.73;;
69956;SDS011;57283;54.816;9.482;2022-09-09T01:39:28;25.77;;;10.10;;
69956;SDS011;57283;54.816;9.482;2022-09-09T01:41:55;24.75;;;10.45;;
69956;SDS011;57283;54.816;9.482;2022-09-09T01:44:25;26.10;;;10.60;;
69956;SDS011;57283;54.816;9.482;2022-09-09T01:46:53;28.90;;;10.75;;
69956;SDS011;57283;54.816;9.482;2022-09-09T01:49:21;27.08;;;10.80;;
69956;SDS011;57283;54.816;9.482;2022-09-09T01:51:49;26.98;;;10.13;;
69956;SDS011;57283;54.816;9.482;2022-09-09T01:54:18;25.70;;;10.88;;
69956;SDS011;57283;54.816;9.482;2022-09-09T01:56:47;29.13;;;10.80;;
69956;SDS011;57283;54.816;9.482;2022-09-09T01:59:21;25.83;;;10.23;;
69956;SDS011;57283;54.816;9.482;2022-09-09T02:01:56;29.60;;;10.32;;
69956;SDS011;57283;54.816;9.482;2022-09-09T02:04:28;28.45;;;10.13;;
69956;SDS011;57283;54.816;9.482;2022-09-09T02:06:59;29.15;;;10.60;;
69956;SDS011;57283;54.816;9.482;2022-09-09T02:09:28;23.80;;;10.00;;
69956;SDS011;57283;54.816;9.482;2022-09-09T02:11:57;30.58;;;11.35;;
69956;SDS011;57283;54.816;9.482;2022-09-09T02:14:27;29.77;;;11.15;;
69956;SDS011;57283;54.816;9.482;2022-09-09T02:16:59;28.45;;;11.05;;
69956;SDS011;57283;54.816;9.482;2022-09-09T02:19:29;26.77;;;11.20;;
69956;SDS011;57283;54.816;9.482;2022-09-09T02:21:59;26.53;;;10.30;;
69956;SDS011;57283;54.816;9.482;2022-09-09T02:24:28;27.77;;;10.40;;
69956;SDS011;57283;54.816;9.482;2022-09-09T02:26:57;29.85;;;11.60;;
69956;SDS011;57283;54.816;9.482;2022-09-09T02:29:26;36.00;;;12.93;;
69956;SDS011;57283;54.816;9.482;2022-09-09T02:31:54;39.65;;;13.13;;
69956;SDS011;57283;54.816;9.482;2022-09-09T02:34:25;36.83;;;11.53;;
69956;SDS011;57283;54.816;9.482;2022-09-09T02:36:53;37.08;;;11.82;;
69956;SDS011;57283;54.816;9.482;2022-09-09T02:39:22;37.75;;;11.13;;
69956;SDS011;57283;54.816;9.482;2022-09-09T02:41:49;56.78;;;12.38;;
69956;SDS011;57283;54.816;9.482;2022-09-09T02:44:17;55.58;;;13.82;;
69956;SDS011;57283;54.816;9.482;2022-09-09T02:46:54;52.23;;;12.30;;
69956;SDS011;57283;54.816;9.482;2022-09-09T02:49:25;72.03;;;13.18;;
69956;SDS011;57283;54.816;9.482;2022-09-09T02:51:57;72.25;;;11.98;;
69956;SDS011;57283;54.816;9.482;2022-09-09T02:54:27;69.18;;;12.82;;
69956;SDS011;57283;54.816;9.482;2022-09-09T02:56:59;50.88;;;12.48;;
69956;SDS011;57283;54.816;9.482;2022-09-09T02:59:29;63.53;;;13.83;;
69956;SDS011;57283;54.816;9.482;2022-09-09T03:01:56;77.50;;;12.68;;
69956;SDS011;57283;54.816;9.482;2022-09-09T03:04:25;59.80;;;13.23;;
69956;SDS011;57283;54.816;9.482;2022-09-09T03:06:53;62.97;;;13.25;;
69956;SDS011;57283;54.816;9.482;2022-09-09T03:09:20;55.15;;;12.68;;
69956;SDS011;57283;54.816;9.482;2022-09-09T03:11:49;34.00;;;10.97;;
69956;SDS011;57283;54.816;9.482;2022-09-09T03:14:16;65.32;;;12.93;;
69956;SDS011;57283;54.816;9.482;2022-09-09T03:16:47;54.88;;;12.55;;
69956;SDS011;57283;54.816;9.482;2022-09-09T03:19:14;48.58;;;12.88;;
69956;SDS011;57283;54.816;9.482;2022-09-09T03:21:43;50.97;;;12.63;;
69956;SDS011;57283;54.816;9.482;2022-09-09T03:24:11;46.47;;;12.07;;
69956;SDS011;57283;54.816;9.482;2022-09-09T03:26:38;53.25;;;12.50;;
69956;SDS011;57283;54.816;9.482;2022-09-09T03:29:06;59.00;;;14.63;;
69956;SDS011;57283;54.816;9.482;2022-09-09T03:31:34;35.38;;;12.93;;
69956;SDS011;57283;54.816;9.482;2022-09-09T03:34:02;37.20;;;13.23;;
69956;SDS011;57283;54.816;9.482;2022-09-09T03:36:29;42.73;;;13.20;;
69956;SDS011;57283;54.816;9.482;2022-09-09T03:38:58;42.13;;;13.70;;
69956;SDS011;57283;54.816;9.482;2022-09-09T03:41:26;40.97;;;14.30;;
69956;SDS011;57283;54.816;9.482;2022-09-09T03:43:54;37.90;;;14.32;;
69956;SDS011;57283;54.816;9.482;2022-09-09T03:46:23;33.83;;;13.07;;
69956;SDS011;57283;54.816;9.482;2022-09-09T03:48:51;37.47;;;13.83;;
69956;SDS011;57283;54.816;9.482;2022-09-09T03:51:19;41.53;;;14.70;;
69956;SDS011;57283;54.816;9.482;2022-09-09T03:53:47;40.97;;;14.90;;
69956;SDS011;57283;54.816;9.482;2022-09-09T03:56:19;36.80;;;14.00;;
69956;SDS011;57283;54.816;9.482;2022-09-09T03:58:48;36.83;;;14.63;;
69956;SDS011;57283;54.816;9.482;2022-09-09T04:01:15;33.53;;;14.83;;
69956;SDS011;57283;54.816;9.482;2022-09-09T04:03:44;41.47;;;15.60;;
69956;SDS011;57283;54.816;9.482;2022-09-09T04:06:12;36.38;;;14.18;;
69956;SDS011;57283;54.816;9.482;2022-09-09T04:08:41;37.63;;;15.93;;
69956;SDS011;57283;54.816;9.482;2022-09-09T04:11:08;38.03;;;15.82;;
69956;SDS011;57283;54.816;9.482;2022-09-09T04:13:37;35.93;;;15.27;;
69956;SDS011;57283;54.816;9.482;2022-09-09T04:16:06;40.15;;;15.48;;
69956;SDS011;57283;54.816;9.482;2022-09-09T04:18:34;36.75;;;14.77;;
69956;SDS011;57283;54.816;9.482;2022-09-09T04:21:02;35.53;;;14.65;;
69956;SDS011;57283;54.816;9.482;2022-09-09T04:23:29;33.67;;;15.20;;
69956;SDS011;57283;54.816;9.482;2022-09-09T04:25:57;33.97;;;15.07;;
69956;SDS011;57283;54.816;9.482;2022-09-09T04:28:26;35.72;;;15.23;;
69956;SDS011;57283;54.816;9.482;2022-09-09T04:30:55;29.92;;;13.85;;
69956;SDS011;57283;54.816;9.482;2022-09-09T04:33:23;32.42;;;14.73;;
69956;SDS011;57283;54.816;9.482;2022-09-09T04:35:52;35.17;;;14.82;;
69956;SDS011;57283;54.816;9.482;2022-09-09T04:38:21;34.30;;;14.50;;
69956;SDS011;57283;54.816;9.482;2022-09-09T04:40:50;32.88;;;14.15;;
69956;SDS011;57283;54.816;9.482;2022-09-09T04:43:20;32.35;;;14.02;;
69956;SDS011;57283;54.816;9.482;2022-09-09T04:45:48;29.23;;;13.57;;
69956;SDS011;57283;54.816;9.482;2022-09-09T04:48:18;31.08;;;13.93;;
69956;SDS011;57283;54.816;9.482;2022-09-09T04:50:53;32.63;;;13.27;;
69956;SDS011;57283;54.816;9.482;2022-09-09T04:53:21;33.28;;;13.68;;
69956;SDS011;57283;54.816;9.482;2022-09-09T04:55:48;32.35;;;13.55;;
69956;SDS011;57283;54.816;9.482;2022-09-09T04:58:16;30.35;;;12.57;;
69956;SDS011;57283;54.816;9.482;2022-09-09T05:00:44;32.35;;;13.93;;
69956;SDS011;57283;54.816;9.482;2022-09-09T05:03:12;36.40;;;14.77;;
69956;SDS011;57283;54.816;9.482;2022-09-09T05:05:41;32.53;;;13.02;;
69956;SDS011;57283;54.816;9.482;2022-09-09T05:08:09;28.58;;;13.25;;
69956;SDS011;57283;54.816;9.482;2022-09-09T05:10:37;28.35;;;12.00;;
69956;SDS011;57283;54.816;9.482;2022-09-09T05:13:04;28.95;;;11.85;;
69956;SDS011;57283;54.816;9.482;2022-09-09T05:15:32;30.43;;;11.77;;
69956;SDS011;57283;54.816;9.482;2022-09-09T05:18:00;29.85;;;12.43;;
69956;SDS011;57283;54.816;9.482;2022-09-09T05:20:29;27.30;;;12.32;;
69956;SDS011;57283;54.816;9.482;2022-09-09T05:22:58;28.67;;;12.25;;
69956;SDS011;57283;54.816;9.482;2022-09-09T05:25:25;31.10;;;11.98;;
69956;SDS011;57283;54.816;9.482;2022-09-09T05:27:53;32.50;;;13.77;;
69956;SDS011;57283;54.816;9.482;2022-09-09T05:30:20;29.60;;;12.38;;
69956;SDS011;57283;54.816;9.482;2022-09-09T05:32:52;31.67;;;13.00;;
69956;SDS011;57283;54.816;9.482;2022-09-09T05:35:22;29.13;;;13.30;;
69956;SDS011;57283;54.816;9.482;2022-09-09T05:37:50;30.65;;;13.18;;
69956;SDS011;57283;54.816;9.482;2022-09-09T05:40:19;37.37;;;12.30;;
69956;SDS011;57283;54.816;9.482;2022-09-09T05:42:47;30.80;;;12.73;;
69956;SDS011;57283;54.816;9.482;2022-09-09T05:45:15;31.13;;;12.73;;
69956;SDS011;57283;54.816;9.482;2022-09-09T05:47:42;38.03;;;12.98;;
69956;SDS011;57283;54.816;9.482;2022-09-09T05:50:10;31.65;;;12.75;;
69956;SDS011;57283;54.816;9.482;2022-09-09T05:52:38;32.43;;;12.23;;
69956;SDS011;57283;54.816;9.482;2022-09-09T05:55:06;32.88;;;11.70;;
69956;SDS011;57283;54.816;9.482;2022-09-09T05:57:35;29.27;;;11.48;;
69956;SDS011;57283;54.816;9.482;2022-09-09T06:00:03;37.53;;;11.65;;
69956;SDS011;57283;54.816;9.482;2022-09-09T06:02:30;32.17;;;10.63;;
69956;SDS011;57283;54.816;9.482;2022-09-09T06:04:59;30.53;;;10.90;;
69956;SDS011;57283;54.816;9.482;2022-09-09T06:07:26;28.40;;;10.30;;
69956;SDS011;57283;54.816;9.482;2022-09-09T06:09:54;27.27;;;10.45;;
69956;SDS011;57283;54.816;9.482;2022-09-09T06:12:22;30.15;;;10.95;;
69956;SDS011;57283;54.816;9.482;2022-09-09T06:14:51;30.92;;;11.27;;
69956;SDS011;57283;54.816;9.482;2022-09-09T06:17:18;28.17;;;10.93;;
69956;SDS011;57283;54.816;9.482;2022-09-09T06:19:46;31.02;;;11.20;;
69956;SDS011;57283;54.816;9.482;2022-09-09T06:22:13;32.80;;;10.77;;
69956;SDS011;57283;54.816;9.482;2022-09-09T06:24:41;23.98;;;11.43;;
69956;SDS011;57283;54.816;9.482;2022-09-09T06:27:08;28.83;;;11.55;;
69956;SDS011;57283;54.816;9.482;2022-09-09T06:29:36;30.63;;;11.53;;
69956;SDS011;57283;54.816;9.482;2022-09-09T06:32:05;31.33;;;11.80;;
69956;SDS011;57283;54.816;9.482;2022-09-09T06:34:34;29.92;;;11.48;;
69956;SDS011;57283;54.816;9.482;2022-09-09T06:37:02;29.08;;;11.60;;
69956;SDS011;57283;54.816;9.482;2022-09-09T06:39:30;26.65;;;12.18;;
69956;SDS011;57283;54.816;9.482;2022-09-09T06:41:58;40.23;;;12.13;;
69956;SDS011;57283;54.816;9.482;2022-09-09T06:44:25;25.30;;;11.40;;
69956;SDS011;57283;54.816;9.482;2022-09-09T06:46:59;25.70;;;12.10;;
69956;SDS011;57283;54.816;9.482;2022-09-09T06:49:28;26.98;;;11.15;;
69956;SDS011;57283;54.816;9.482;2022-09-09T06:51:56;22.95;;;10.70;;
69956;SDS011;57283;54.816;9.482;2022-09-09T06:54:23;24.63;;;10.40;;
69956;SDS011;57283;54.816;9.482;2022-09-09T06:56:51;26.60;;;11.73;;
69956;SDS011;57283;54.816;9.482;2022-09-09T06:59:19;28.40;;;11.70;;
69956;SDS011;57283;54.816;9.482;2022-09-09T07:01:46;23.73;;;10.80;;
69956;SDS011;57283;54.816;9.482;2022-09-09T07:04:20;22.75;;;10.95;;
69956;SDS011;57283;54.816;9.482;2022-09-09T07:06:49;26.40;;;10.90;;
69956;SDS011;57283;54.816;9.482;2022-09-09T07:09:18;47.08;;;11.75;;
69956;SDS011;57283;54.816;9.482;2022-09-09T07:11:46;25.60;;;10.93;;
69956;SDS011;57283;54.816;9.482;2022-09-09T07:14:14;24.75;;;10.85;;
69956;SDS011;57283;54.816;9.482;2022-09-09T07:16:42;27.42;;;11.43;;
69956;SDS011;57283;54.816;9.482;2022-09-09T07:19:10;24.03;;;10.27;;
69956;SDS011;57283;54.816;9.482;2022-09-09T07:21:37;25.63;;;10.98;;
69956;SDS011;57283;54.816;9.482;2022-09-09T07:24:07;22.98;;;11.00;;
69956;SDS011;57283;54.816;9.482;2022-09-09T07:26:37;23.48;;;11.32;;
69956;SDS011;57283;54.816;9.482;2022-09-09T07:29:04;23.80;;;11.52;;
69956;SDS011;57283;54.816;9.482;2022-09-09T07:31:33;24.60;;;11.80;;
69956;SDS011;57283;54.816;9.482;2022-09-09T07:34:01;24.00;;;11.63;;
69956;SDS011;57283;54.816;9.482;2022-09-09T07:36:30;23.88;;;11.55;;
69956;SDS011;57283;54.816;9.482;2022-09-09T07:38:59;25.15;;;11.75;;
69956;SDS011;57283;54.816;9.482;2022-09-09T07:41:29;24.20;;;11.77;;
69956;SDS011;57283;54.816;9.482;2022-09-09T07:44:03;24.37;;;11.27;;
69956;SDS011;57283;54.816;9.482;2022-09-09T07:46:31;25.45;;;12.65;;
69956;SDS011;57283;54.816;9.482;2022-09-09T07:48:58;26.25;;;12.82;;
69956;SDS011;57283;54.816;9.482;2022-09-09T07:51:27;28.50;;;13.60;;
69956;SDS011;57283;54.816;9.482;2022-09-09T07:53:56;26.63;;;12.55;;
69956;SDS011;57283;54.816;9.482;2022-09-09T07:56:25;27.63;;;12.40;;
69956;SDS011;57283;54.816;9.482;2022-09-09T07:58:55;23.80;;;12.60;;
69956;SDS011;57283;54.816;9.482;2022-09-09T08:01:23;24.17;;;12.52;;
69956;SDS011;57283;54.816;9.482;2022-09-09T08:03:53;21.98;;;11.15;;
69956;SDS011;57283;54.816;9.482;2022-09-09T08:06:22;21.90;;;11.27;;
69956;SDS011;57283;54.816;9.482;2022-09-09T08:08:51;21.90;;;11.33;;
69956;SDS011;57283;54.816;9.482;2022-09-09T08:11:19;23.35;;;11.85;;
69956;SDS011;57283;54.816;9.482;2022-09-09T08:13:46;24.48;;;12.35;;
69956;SDS011;57283;54.816;9.482;2022-09-09T08:16:21;26.85;;;12.80;;
69956;SDS011;57283;54.816;9.482;2022-09-09T08:18:49;26.33;;;12.32;;
69956;SDS011;57283;54.816;9.482;2022-09-09T08:21:18;24.17;;;12.33;;
69956;SDS011;57283;54.816;9.482;2022-09-09T08:23:46;24.23;;;13.13;;
69956;SDS011;57283;54.816;9.482;2022-09-09T08:26:15;25.60;;;12.25;;
69956;SDS011;57283;54.816;9.482;2022-09-09T08:28:43;24.67;;;13.07;;
69956;SDS011;57283;54.816;9.482;2022-09-09T08:31:11;23.05;;;13.18;;
69956;SDS011;57283;54.816;9.482;2022-09-09T08:33:41;23.70;;;12.57;;
69956;SDS011;57283;54.816;9.482;2022-09-09T08:36:10;22.10;;;12.23;;
69956;SDS011;57283;54.816;9.482;2022-09-09T08:38:38;24.35;;;12.85;;
69956;SDS011;57283;54.816;9.482;2022-09-09T08:41:24;24.90;;;13.38;;
69956;SDS011;57283;54.816;9.482;2022-09-09T08:43:58;25.85;;;13.60;;
69956;SDS011;57283;54.816;9.482;2022-09-09T08:46:29;24.70;;;13.00;;
69956;SDS011;57283;54.816;9.482;2022-09-09T08:49:01;24.02;;;12.15;;
69956;SDS011;57283;54.816;9.482;2022-09-09T08:51:32;24.13;;;11.93;;
69956;SDS011;57283;54.816;9.482;2022-09-09T08:54:01;23.70;;;12.48;;
69956;SDS011;57283;54.816;9.482;2022-09-09T08:56:30;22.60;;;11.60;;
69956;SDS011;57283;54.816;9.482;2022-09-09T08:59:00;20.17;;;11.03;;
69956;SDS011;57283;54.816;9.482;2022-09-09T09:01:38;22.75;;;11.90;;
69956;SDS011;57283;54.816;9.482;2022-09-09T09:04:14;22.98;;;11.88;;
69956;SDS011;57283;54.816;9.482;2022-09-09T09:06:47;21.70;;;12.23;;
69956;SDS011;57283;54.816;9.482;2022-09-09T09:09:18;21.67;;;12.38;;
69956;SDS011;57283;54.816;9.482;2022-09-09T09:11:49;21.83;;;12.00;;
69956;SDS011;57283;54.816;9.482;2022-09-09T09:14:18;22.67;;;12.13;;
69956;SDS011;57283;54.816;9.482;2022-09-09T09:16:48;23.05;;;12.60;;
69956;SDS011;57283;54.816;9.482;2022-09-09T09:19:19;22.23;;;12.30;;
69956;SDS011;57283;54.816;9.482;2022-09-09T09:21:50;23.38;;;12.05;;
69956;SDS011;57283;54.816;9.482;2022-09-09T09:24:19;22.67;;;11.97;;
69956;SDS011;57283;54.816;9.482;2022-09-09T09:26:47;21.27;;;11.93;;
69956;SDS011;57283;54.816;9.482;2022-09-09T09:29:16;24.13;;;13.32;;
69956;SDS011;57283;54.816;9.482;2022-09-09T09:31:45;25.80;;;12.80;;
69956;SDS011;57283;54.816;9.482;2022-09-09T09:34:14;24.23;;;12.88;;
69956;SDS011;57283;54.816;9.482;2022-09-09T09:36:43;24.43;;;12.83;;
69956;SDS011;57283;54.816;9.482;2022-09-09T09:39:22;21.95;;;12.05;;
69956;SDS011;57283;54.816;9.482;2022-09-09T09:42:10;23.63;;;13.13;;
69956;SDS011;57283;54.816;9.482;2022-09-09T09:44:41;21.42;;;11.68;;
69956;SDS011;57283;54.816;9.482;2022-09-09T09:47:10;23.67;;;11.80;;
69956;SDS011;57283;54.816;9.482;2022-09-09T09:49:39;21.63;;;12.30;;
69956;SDS011;57283;54.816;9.482;2022-09-09T09:52:12;22.20;;;11.73;;
69956;SDS011;57283;54.816;9.482;2022-09-09T09:54:41;21.67;;;12.13;;
69956;SDS011;57283;54.816;9.482;2022-09-09T09:57:09;22.75;;;12.68;;
69956;SDS011;57283;54.816;9.482;2022-09-09T09:59:38;24.30;;;12.65;;
69956;SDS011;57283;54.816;9.482;2022-09-09T10:02:13;21.13;;;11.57;;
69956;SDS011;57283;54.816;9.482;2022-09-09T10:04:41;20.00;;;12.07;;
69956;SDS011;57283;54.816;9.482;2022-09-09T10:07:11;21.63;;;12.48;;
69956;SDS011;57283;54.816;9.482;2022-09-09T10:09:39;22.70;;;12.80;;
69956;SDS011;57283;54.816;9.482;2022-09-09T10:12:10;20.02;;;12.13;;
69956;SDS011;57283;54.816;9.482;2022-09-09T10:14:42;18.03;;;10.87;;
69956;SDS011;57283;54.816;9.482;2022-09-09T10:17:15;16.88;;;11.10;;
69956;SDS011;57283;54.816;9.482;2022-09-09T10:19:51;17.83;;;11.05;;
69956;SDS011;57283;54.816;9.482;2022-09-09T10:22:27;18.30;;;10.93;;
69956;SDS011;57283;54.816;9.482;2022-09-09T10:25:13;18.58;;;10.90;;
69956;SDS011;57283;54.816;9.482;2022-09-09T10:27:47;16.33;;;10.67;;
69956;SDS011;57283;54.816;9.482;2022-09-09T10:30:24;15.90;;;10.75;;
69956;SDS011;57283;54.816;9.482;2022-09-09T10:32:55;16.95;;;10.70;;
69956;SDS011;57283;54.816;9.482;2022-09-09T10:35:25;16.50;;;10.65;;
69956;SDS011;57283;54.816;9.482;2022-09-09T10:38:03;17.45;;;10.93;;
69956;SDS011;57283;54.816;9.482;2022-09-09T10:40:33;16.73;;;10.50;;
69956;SDS011;57283;54.816;9.482;2022-09-09T10:43:03;14.57;;;9.57;;
69956;SDS011;57283;54.816;9.482;2022-09-09T10:45:36;15.88;;;9.25;;
69956;SDS011;57283;54.816;9.482;2022-09-09T10:48:12;16.02;;;9.00;;
69956;SDS011;57283;54.816;9.482;2022-09-09T10:50:52;16.30;;;10.48;;
69956;SDS011;57283;54.816;9.482;2022-09-09T10:53:34;17.23;;;10.13;;
69956;SDS011;57283;54.816;9.482;2022-09-09T10:56:04;15.38;;;10.25;;
69956;SDS011;57283;54.816;9.482;2022-09-09T10:58:35;16.35;;;10.60;;
69956;SDS011;57283;54.816;9.482;2022-09-09T11:01:07;18.00;;;10.82;;
69956;SDS011;57283;54.816;9.482;2022-09-09T11:03:37;16.67;;;10.15;;
69956;SDS011;57283;54.816;9.482;2022-09-09T11:06:09;16.73;;;10.40;;
69956;SDS011;57283;54.816;9.482;2022-09-09T11:08:41;15.52;;;10.30;;
69956;SDS011;57283;54.816;9.482;2022-09-09T11:11:10;19.45;;;11.20;;
69956;SDS011;57283;54.816;9.482;2022-09-09T11:13:39;16.92;;;10.95;;
69956;SDS011;57283;54.816;9.482;2022-09-09T11:16:14;18.63;;;11.52;;
69956;SDS011;57283;54.816;9.482;2022-09-09T11:18:43;17.00;;;11.03;;
69956;SDS011;57283;54.816;9.482;2022-09-09T11:21:15;17.92;;;11.90;;
69956;SDS011;57283;54.816;9.482;2022-09-09T11:23:47;16.70;;;10.63;;
69956;SDS011;57283;54.816;9.482;2022-09-09T11:26:17;15.55;;;11.02;;
69956;SDS011;57283;54.816;9.482;2022-09-09T11:28:50;14.98;;;10.82;;
69956;SDS011;57283;54.816;9.482;2022-09-09T11:31:31;18.37;;;11.20;;
69956;SDS011;57283;54.816;9.482;2022-09-09T11:36:50;16.40;;;11.30;;
69956;SDS011;57283;54.816;9.482;2022-09-09T11:39:33;15.30;;;11.00;;
69956;SDS011;57283;54.816;9.482;2022-09-09T11:42:07;16.55;;;11.77;;
69956;SDS011;57283;54.816;9.482;2022-09-09T11:44:34;16.83;;;11.60;;
69956;SDS011;57283;54.816;9.482;2022-09-09T11:47:03;16.27;;;11.68;;
69956;SDS011;57283;54.816;9.482;2022-09-09T11:49:40;17.20;;;11.95;;
69956;SDS011;57283;54.816;9.482;2022-09-09T11:52:11;17.52;;;11.85;;
69956;SDS011;57283;54.816;9.482;2022-09-09T11:54:46;20.23;;;12.40;;
69956;SDS011;57283;54.816;9.482;2022-09-09T11:57:17;18.63;;;11.90;;
69956;SDS011;57283;54.816;9.482;2022-09-09T11:59:50;18.77;;;12.27;;
69956;SDS011;57283;54.816;9.482;2022-09-09T12:02:21;19.65;;;12.18;;
69956;SDS011;57283;54.816;9.482;2022-09-09T12:04:50;19.63;;;11.93;;
69956;SDS011;57283;54.816;9.482;2022-09-09T12:07:24;17.63;;;12.07;;
69956;SDS011;57283;54.816;9.482;2022-09-09T12:09:56;15.57;;;10.83;;
69956;SDS011;57283;54.816;9.482;2022-09-09T12:12:29;15.18;;;10.13;;
69956;SDS011;57283;54.816;9.482;2022-09-09T12:15:01;15.82;;;10.85;;
69956;SDS011;57283;54.816;9.482;2022-09-09T12:17:29;12.85;;;10.23;;
69956;SDS011;57283;54.816;9.482;2022-09-09T12:20:02;10.52;;;8.52;;
69956;SDS011;57283;54.816;9.482;2022-09-09T12:22:35;10.23;;;8.17;;
69956;SDS011;57283;54.816;9.482;2022-09-09T12:25:08;9.90;;;7.75;;
69956;SDS011;57283;54.816;9.482;2022-09-09T12:27:40;11.50;;;7.00;;
69956;SDS011;57283;54.816;9.482;2022-09-09T12:30:14;8.70;;;6.93;;
69956;SDS011;57283;54.816;9.482;2022-09-09T12:32:42;8.30;;;6.90;;
69956;SDS011;57283;54.816;9.482;2022-09-09T12:35:11;9.73;;;6.83;;
69956;SDS011;57283;54.816;9.482;2022-09-09T12:37:39;8.38;;;6.80;;
69956;SDS011;57283;54.816;9.482;2022-09-09T12:40:19;9.18;;;7.15;;
69956;SDS011;57283;54.816;9.482;2022-09-09T12:42:47;9.43;;;6.50;;
69956;SDS011;57283;54.816;9.482;2022-09-09T12:45:15;9.95;;;6.57;;
69956;SDS011;57283;54.816;9.482;2022-09-09T12:47:44;7.83;;;6.20;;
69956;SDS011;57283;54.816;9.482;2022-09-09T12:50:17;8.10;;;6.00;;
69956;SDS011;57283;54.816;9.482;2022-09-09T12:52:45;8.45;;;5.25;;
69956;SDS011;57283;54.816;9.482;2022-09-09T12:55:16;8.98;;;6.07;;
69956;SDS011;57283;54.816;9.482;2022-09-09T12:57:45;8.38;;;5.90;;
69956;SDS011;57283;54.816;9.482;2022-09-09T13:00:17;7.33;;;5.67;;
69956;SDS011;57283;54.816;9.482;2022-09-09T13:02:45;7.88;;;5.97;;
69956;SDS011;57283;54.816;9.482;2022-09-09T13:05:15;7.38;;;5.78;;
69956;SDS011;57283;54.816;9.482;2022-09-09T13:07:43;8.38;;;6.03;;
69956;SDS011;57283;54.816;9.482;2022-09-09T13:10:11;8.35;;;6.75;;
69956;SDS011;57283;54.816;9.482;2022-09-09T13:12:52;7.97;;;6.13;;
69956;SDS011;57283;54.816;9.482;2022-09-09T13:15:20;8.32;;;6.00;;
69956;SDS011;57283;54.816;9.482;2022-09-09T13:17:50;10.43;;;6.90;;
69956;SDS011;57283;54.816;9.482;2022-09-09T13:20:18;8.65;;;7.10;;
69956;SDS011;57283;54.816;9.482;2022-09-09T13:22:47;9.07;;;7.18;;
69956;SDS011;57283;54.816;9.482;2022-09-09T13:25:20;10.50;;;7.37;;
69956;SDS011;57283;54.816;9.482;2022-09-09T13:27:59;9.70;;;6.80;;
69956;SDS011;57283;54.816;9.482;2022-09-09T13:30:27;8.80;;;6.70;;
69956;SDS011;57283;54.816;9.482;2022-09-09T13:33:06;8.93;;;6.70;;
69956;SDS011;57283;54.816;9.482;2022-09-09T13:35:33;7.97;;;6.35;;
69956;SDS011;57283;54.816;9.482;2022-09-09T13:38:08;9.63;;;6.73;;
69956;SDS011;57283;54.816;9.482;2022-09-09T13:40:37;9.35;;;7.32;;
69956;SDS011;57283;54.816;9.482;2022-09-09T13:43:10;9.70;;;7.03;;
69956;SDS011;57283;54.816;9.482;2022-09-09T13:45:51;8.43;;;6.45;;
69956;SDS011;57283;54.816;9.482;2022-09-09T13:48:20;10.35;;;7.07;;
69956;SDS011;57283;54.816;9.482;2022-09-09T13:50:53;12.03;;;8.00;;
69956;SDS011;57283;54.816;9.482;2022-09-09T13:53:21;11.07;;;7.75;;
69956;SDS011;57283;54.816;9.482;2022-09-09T13:55:48;14.18;;;8.30;;
69956;SDS011;57283;54.816;9.482;2022-09-09T13:58:20;10.55;;;7.60;;
69956;SDS011;57283;54.816;9.482;2022-09-09T14:00:49;10.23;;;7.30;;
69956;SDS011;57283;54.816;9.482;2022-09-09T14:03:17;10.07;;;7.13;;
69956;SDS011;57283;54.816;9.482;2022-09-09T14:05:44;11.25;;;7.40;;
69956;SDS011;57283;54.816;9.482;2022-09-09T14:08:15;10.85;;;7.38;;
69956;SDS011;57283;54.816;9.482;2022-09-09T14:10:43;10.52;;;7.28;;
69956;SDS011;57283;54.816;9.482;2022-09-09T14:13:11;13.48;;;7.75;;
69956;SDS011;57283;54.816;9.482;2022-09-09T14:15:40;12.00;;;7.57;;
69956;SDS011;57283;54.816;9.482;2022-09-09T14:18:09;10.27;;;7.05;;
69956;SDS011;57283;54.816;9.482;2022-09-09T14:20:37;10.60;;;7.15;;
69956;SDS011;57283;54.816;9.482;2022-09-09T14:23:04;10.23;;;6.60;;
69956;SDS011;57283;54.816;9.482;2022-09-09T14:25:32;6.15;;;3.88;;
69956;SDS011;57283;54.816;9.482;2022-09-09T14:28:00;7.17;;;3.97;;
69956;SDS011;57283;54.816;9.482;2022-09-09T14:30:29;6.28;;;3.92;;
69956;SDS011;57283;54.816;9.482;2022-09-09T14:32:58;6.55;;;4.45;;
69956;SDS011;57283;54.816;9.482;2022-09-09T14:35:26;7.38;;;5.80;;
69956;SDS011;57283;54.816;9.482;2022-09-09T14:37:54;7.47;;;5.63;;
69956;SDS011;57283;54.816;9.482;2022-09-09T14:40:22;8.37;;;5.80;;
69956;SDS011;57283;54.816;9.482;2022-09-09T14:42:50;7.43;;;5.43;;
69956;SDS011;57283;54.816;9.482;2022-09-09T14:45:17;7.13;;;4.95;;
69956;SDS011;57283;54.816;9.482;2022-09-09T14:47:45;6.43;;;4.88;;